sensor_id;sensor_type;location;lat;lon;timestamp;P1;durP1;ratioP1;P2;durP2;ratioP2
30998;SDS011;20549;50.042;8.968;2023-04-24T00:01:29;0.80;;;0.80;;
30998;SDS011;20549;50.042;8.968;2023-04-24T00:03:56;1.13;;;1.03;;
30998;SDS011;20549;50.042;8.968;2023-04-24T00:06:22;2.23;;;1.00;;
30998;SDS011;20549;50.042;8.968;2023-04-24T00:08:49;0.93;;;0.87;;
30998;SDS011;20549;50.042;8.968;2023-04-24T00:11:15;1.77;;;0.90;;
30998;SDS011;20549;50.042;8.968;2023-04-24T00:13:42;4.05;;;1.42;;
30998;SDS011;20549;50.042;8.968;2023-04-24T00:16:08;2.00;;;0.80;;
30998;SDS011;20549;50.042;8.968;2023-04-24T00:18:35;0.87;;;0.70;;
30998;SDS011;20549;50.042;8.968;2023-04-24T00:21:02;0.97;;;0.97;;
30998;SDS011;20549;50.042;8.968;2023-04-24T00:23:28;0.80;;;0.80;;
30998;SDS011;20549;50.042;8.968;2023-04-24T00:25:55;0.90;;;0.90;;
30998;SDS011;20549;50.042;8.968;2023-04-24T00:28:21;0.73;;;0.70;;
30998;SDS011;20549;50.042;8.968;2023-04-24T00:30:48;2.70;;;1.30;;
30998;SDS011;20549;50.042;8.968;2023-04-24T00:33:15;0.70;;;0.70;;
30998;SDS011;20549;50.042;8.968;2023-04-24T00:35:41;1.03;;;1.03;;
30998;SDS011;20549;50.042;8.968;2023-04-24T00:38:08;0.87;;;0.50;;
30998;SDS011;20549;50.042;8.968;2023-04-24T00:40:34;0.80;;;0.80;;
30998;SDS011;20549;50.042;8.968;2023-04-24T00:43:01;0.77;;;0.73;;
30998;SDS011;20549;50.042;8.968;2023-04-24T00:45:27;0.77;;;0.77;;
30998;SDS011;20549;50.042;8.968;2023-04-24T00:47:54;1.20;;;0.88;;
30998;SDS011;20549;50.042;8.968;2023-04-24T00:50:21;1.42;;;0.98;;
30998;SDS011;20549;50.042;8.968;2023-04-24T00:52:47;1.13;;;0.70;;
30998;SDS011;20549;50.042;8.968;2023-04-24T00:55:14;0.80;;;0.80;;
30998;SDS011;20549;50.042;8.968;2023-04-24T00:57:41;1.53;;;0.80;;
30998;SDS011;20549;50.042;8.968;2023-04-24T01:00:07;1.27;;;0.85;;
30998;SDS011;20549;50.042;8.968;2023-04-24T01:02:34;0.93;;;0.90;;
30998;SDS011;20549;50.042;8.968;2023-04-24T01:05:00;2.57;;;0.90;;
30998;SDS011;20549;50.042;8.968;2023-04-24T01:07:27;0.70;;;0.70;;
30998;SDS011;20549;50.042;8.968;2023-04-24T01:09:53;0.80;;;0.80;;
30998;SDS011;20549;50.042;8.968;2023-04-24T01:12:20;0.70;;;0.70;;
30998;SDS011;20549;50.042;8.968;2023-04-24T01:14:47;0.60;;;0.60;;
30998;SDS011;20549;50.042;8.968;2023-04-24T01:17:13;0.90;;;0.70;;
30998;SDS011;20549;50.042;8.968;2023-04-24T01:19:40;0.70;;;0.70;;
30998;SDS011;20549;50.042;8.968;2023-04-24T01:22:15;0.70;;;0.70;;
30998;SDS011;20549;50.042;8.968;2023-04-24T01:24:39;1.97;;;0.83;;
30998;SDS011;20549;50.042;8.968;2023-04-24T01:27:06;0.62;;;0.62;;
30998;SDS011;20549;50.042;8.968;2023-04-24T01:29:32;1.07;;;0.60;;
30998;SDS011;20549;50.042;8.968;2023-04-24T01:31:59;1.00;;;0.90;;
30998;SDS011;20549;50.042;8.968;2023-04-24T01:34:25;1.43;;;0.87;;
30998;SDS011;20549;50.042;8.968;2023-04-24T01:36:52;0.97;;;0.87;;
30998;SDS011;20549;50.042;8.968;2023-04-24T01:39:18;0.70;;;0.70;;
30998;SDS011;20549;50.042;8.968;2023-04-24T01:41:45;0.70;;;0.60;;
30998;SDS011;20549;50.042;8.968;2023-04-24T01:44:12;1.40;;;0.95;;
30998;SDS011;20549;50.042;8.968;2023-04-24T01:46:38;1.07;;;0.60;;
30998;SDS011;20549;50.042;8.968;2023-04-24T01:49:05;0.80;;;0.80;;
30998;SDS011;20549;50.042;8.968;2023-04-24T01:51:31;0.73;;;0.70;;
30998;SDS011;20549;50.042;8.968;2023-04-24T01:53:58;0.70;;;0.70;;
30998;SDS011;20549;50.042;8.968;2023-04-24T01:56:25;1.10;;;0.77;;
30998;SDS011;20549;50.042;8.968;2023-04-24T01:58:51;0.88;;;0.60;;
30998;SDS011;20549;50.042;8.968;2023-04-24T02:01:18;3.05;;;0.72;;
30998;SDS011;20549;50.042;8.968;2023-04-24T02:03:44;1.37;;;0.97;;
30998;SDS011;20549;50.042;8.968;2023-04-24T02:06:11;0.60;;;0.57;;
30998;SDS011;20549;50.042;8.968;2023-04-24T02:08:37;1.07;;;0.70;;
30998;SDS011;20549;50.042;8.968;2023-04-24T02:11:04;1.53;;;0.70;;
30998;SDS011;20549;50.042;8.968;2023-04-24T02:13:31;1.10;;;0.80;;
30998;SDS011;20549;50.042;8.968;2023-04-24T02:16:00;1.10;;;1.00;;
30998;SDS011;20549;50.042;8.968;2023-04-24T02:18:27;2.07;;;1.00;;
30998;SDS011;20549;50.042;8.968;2023-04-24T02:20:53;1.10;;;0.70;;
30998;SDS011;20549;50.042;8.968;2023-04-24T02:23:20;2.27;;;0.78;;
30998;SDS011;20549;50.042;8.968;2023-04-24T02:25:47;1.15;;;1.07;;
30998;SDS011;20549;50.042;8.968;2023-04-24T02:28:13;1.53;;;0.77;;
30998;SDS011;20549;50.042;8.968;2023-04-24T02:30:40;1.07;;;1.00;;
30998;SDS011;20549;50.042;8.968;2023-04-24T02:33:06;0.57;;;0.57;;
30998;SDS011;20549;50.042;8.968;2023-04-24T02:35:33;0.73;;;0.60;;
30998;SDS011;20549;50.042;8.968;2023-04-24T02:38:00;0.50;;;0.50;;
30998;SDS011;20549;50.042;8.968;2023-04-24T02:40:26;0.73;;;0.73;;
30998;SDS011;20549;50.042;8.968;2023-04-24T02:42:53;1.03;;;0.70;;
30998;SDS011;20549;50.042;8.968;2023-04-24T02:45:19;1.47;;;1.10;;
30998;SDS011;20549;50.042;8.968;2023-04-24T02:47:46;1.27;;;0.97;;
30998;SDS011;20549;50.042;8.968;2023-04-24T02:50:12;1.82;;;0.60;;
30998;SDS011;20549;50.042;8.968;2023-04-24T02:52:39;0.85;;;0.75;;
30998;SDS011;20549;50.042;8.968;2023-04-24T02:55:06;0.97;;;0.70;;
30998;SDS011;20549;50.042;8.968;2023-04-24T02:57:32;0.73;;;0.70;;
30998;SDS011;20549;50.042;8.968;2023-04-24T02:59:59;0.83;;;0.73;;
30998;SDS011;20549;50.042;8.968;2023-04-24T03:02:25;0.77;;;0.77;;
30998;SDS011;20549;50.042;8.968;2023-04-24T03:04:52;0.73;;;0.60;;
30998;SDS011;20549;50.042;8.968;2023-04-24T03:07:19;0.63;;;0.50;;
30998;SDS011;20549;50.042;8.968;2023-04-24T03:09:45;1.20;;;0.90;;
30998;SDS011;20549;50.042;8.968;2023-04-24T03:12:12;1.63;;;0.80;;
30998;SDS011;20549;50.042;8.968;2023-04-24T03:14:38;1.30;;;1.20;;
30998;SDS011;20549;50.042;8.968;2023-04-24T03:17:05;0.70;;;0.70;;
30998;SDS011;20549;50.042;8.968;2023-04-24T03:19:32;2.42;;;0.80;;
30998;SDS011;20549;50.042;8.968;2023-04-24T03:21:58;1.70;;;1.20;;
30998;SDS011;20549;50.042;8.968;2023-04-24T03:24:25;0.80;;;0.80;;
30998;SDS011;20549;50.042;8.968;2023-04-24T03:26:51;0.60;;;0.60;;
30998;SDS011;20549;50.042;8.968;2023-04-24T03:29:18;1.47;;;1.27;;
30998;SDS011;20549;50.042;8.968;2023-04-24T03:31:44;2.30;;;0.97;;
30998;SDS011;20549;50.042;8.968;2023-04-24T03:34:11;2.00;;;0.90;;
30998;SDS011;20549;50.042;8.968;2023-04-24T03:36:38;0.60;;;0.60;;
30998;SDS011;20549;50.042;8.968;2023-04-24T03:39:04;1.15;;;0.60;;
30998;SDS011;20549;50.042;8.968;2023-04-24T03:41:31;1.70;;;0.70;;
30998;SDS011;20549;50.042;8.968;2023-04-24T03:43:57;2.00;;;1.00;;
30998;SDS011;20549;50.042;8.968;2023-04-24T03:46:24;0.80;;;0.67;;
30998;SDS011;20549;50.042;8.968;2023-04-24T03:48:51;2.00;;;0.80;;
30998;SDS011;20549;50.042;8.968;2023-04-24T03:51:17;0.70;;;0.60;;
30998;SDS011;20549;50.042;8.968;2023-04-24T03:53:44;1.73;;;0.93;;
30998;SDS011;20549;50.042;8.968;2023-04-24T03:56:10;0.77;;;0.70;;
30998;SDS011;20549;50.042;8.968;2023-04-24T03:58:37;1.37;;;0.73;;
30998;SDS011;20549;50.042;8.968;2023-04-24T04:01:04;0.90;;;0.90;;
30998;SDS011;20549;50.042;8.968;2023-04-24T04:03:30;1.77;;;0.80;;
30998;SDS011;20549;50.042;8.968;2023-04-24T04:05:57;0.93;;;0.85;;
30998;SDS011;20549;50.042;8.968;2023-04-24T04:08:23;1.50;;;0.70;;
30998;SDS011;20549;50.042;8.968;2023-04-24T04:10:50;0.70;;;0.70;;
30998;SDS011;20549;50.042;8.968;2023-04-24T04:13:16;0.83;;;0.83;;
30998;SDS011;20549;50.042;8.968;2023-04-24T04:15:43;1.10;;;0.80;;
30998;SDS011;20549;50.042;8.968;2023-04-24T04:18:10;0.70;;;0.60;;
30998;SDS011;20549;50.042;8.968;2023-04-24T04:20:36;1.10;;;0.87;;
30998;SDS011;20549;50.042;8.968;2023-04-24T04:23:03;1.23;;;0.70;;
30998;SDS011;20549;50.042;8.968;2023-04-24T04:25:29;1.67;;;0.90;;
30998;SDS011;20549;50.042;8.968;2023-04-24T04:27:56;0.80;;;0.80;;
30998;SDS011;20549;50.042;8.968;2023-04-24T04:30:23;1.60;;;0.67;;
30998;SDS011;20549;50.042;8.968;2023-04-24T04:32:49;1.30;;;0.90;;
30998;SDS011;20549;50.042;8.968;2023-04-24T04:35:16;1.60;;;0.90;;
30998;SDS011;20549;50.042;8.968;2023-04-24T04:37:42;1.53;;;0.70;;
30998;SDS011;20549;50.042;8.968;2023-04-24T04:40:09;0.70;;;0.70;;
30998;SDS011;20549;50.042;8.968;2023-04-24T04:42:36;1.83;;;0.97;;
30998;SDS011;20549;50.042;8.968;2023-04-24T04:45:02;2.00;;;1.00;;
30998;SDS011;20549;50.042;8.968;2023-04-24T04:47:29;1.50;;;0.93;;
30998;SDS011;20549;50.042;8.968;2023-04-24T04:49:55;1.23;;;0.80;;
30998;SDS011;20549;50.042;8.968;2023-04-24T04:52:22;2.17;;;1.10;;
30998;SDS011;20549;50.042;8.968;2023-04-24T04:54:48;0.93;;;0.93;;
30998;SDS011;20549;50.042;8.968;2023-04-24T04:57:15;1.00;;;1.00;;
30998;SDS011;20549;50.042;8.968;2023-04-24T04:59:42;1.77;;;1.00;;
30998;SDS011;20549;50.042;8.968;2023-04-24T05:02:08;1.17;;;1.07;;
30998;SDS011;20549;50.042;8.968;2023-04-24T05:04:35;1.83;;;1.00;;
30998;SDS011;20549;50.042;8.968;2023-04-24T05:07:01;0.97;;;0.97;;
30998;SDS011;20549;50.042;8.968;2023-04-24T05:09:28;2.43;;;0.93;;
30998;SDS011;20549;50.042;8.968;2023-04-24T05:11:55;1.70;;;1.17;;
30998;SDS011;20549;50.042;8.968;2023-04-24T05:14:21;1.43;;;1.27;;
30998;SDS011;20549;50.042;8.968;2023-04-24T05:16:48;1.73;;;1.20;;
30998;SDS011;20549;50.042;8.968;2023-04-24T05:19:14;1.10;;;1.00;;
30998;SDS011;20549;50.042;8.968;2023-04-24T05:21:41;1.67;;;1.20;;
30998;SDS011;20549;50.042;8.968;2023-04-24T05:24:08;0.80;;;0.80;;
30998;SDS011;20549;50.042;8.968;2023-04-24T05:26:34;0.90;;;0.90;;
30998;SDS011;20549;50.042;8.968;2023-04-24T05:29:01;1.35;;;1.00;;
30998;SDS011;20549;50.042;8.968;2023-04-24T05:31:27;0.70;;;0.70;;
30998;SDS011;20549;50.042;8.968;2023-04-24T05:33:54;0.98;;;0.98;;
30998;SDS011;20549;50.042;8.968;2023-04-24T05:36:20;0.80;;;0.80;;
30998;SDS011;20549;50.042;8.968;2023-04-24T05:38:47;1.52;;;0.75;;
30998;SDS011;20549;50.042;8.968;2023-04-24T05:41:14;1.75;;;0.93;;
30998;SDS011;20549;50.042;8.968;2023-04-24T05:43:40;0.88;;;0.88;;
30998;SDS011;20549;50.042;8.968;2023-04-24T05:46:07;0.93;;;0.80;;
30998;SDS011;20549;50.042;8.968;2023-04-24T05:48:33;0.60;;;0.60;;
30998;SDS011;20549;50.042;8.968;2023-04-24T05:51:00;0.80;;;0.80;;
30998;SDS011;20549;50.042;8.968;2023-04-24T05:53:27;1.05;;;0.80;;
30998;SDS011;20549;50.042;8.968;2023-04-24T05:55:53;0.93;;;0.80;;
30998;SDS011;20549;50.042;8.968;2023-04-24T05:58:20;1.10;;;0.95;;
30998;SDS011;20549;50.042;8.968;2023-04-24T06:00:46;1.05;;;1.00;;
30998;SDS011;20549;50.042;8.968;2023-04-24T06:03:13;1.47;;;1.00;;
30998;SDS011;20549;50.042;8.968;2023-04-24T06:05:40;1.00;;;1.00;;
30998;SDS011;20549;50.042;8.968;2023-04-24T06:08:06;1.17;;;0.70;;
30998;SDS011;20549;50.042;8.968;2023-04-24T06:10:33;0.70;;;0.70;;
30998;SDS011;20549;50.042;8.968;2023-04-24T06:12:59;1.50;;;0.70;;
30998;SDS011;20549;50.042;8.968;2023-04-24T06:15:29;0.98;;;0.75;;
30998;SDS011;20549;50.042;8.968;2023-04-24T06:17:56;0.80;;;0.80;;
30998;SDS011;20549;50.042;8.968;2023-04-24T06:20:22;0.95;;;0.90;;
30998;SDS011;20549;50.042;8.968;2023-04-24T06:22:49;1.17;;;0.82;;
30998;SDS011;20549;50.042;8.968;2023-04-24T06:25:15;1.00;;;0.72;;
30998;SDS011;20549;50.042;8.968;2023-04-24T06:27:42;1.35;;;1.10;;
30998;SDS011;20549;50.042;8.968;2023-04-24T06:30:08;1.00;;;1.00;;
30998;SDS011;20549;50.042;8.968;2023-04-24T06:32:35;1.65;;;1.10;;
30998;SDS011;20549;50.042;8.968;2023-04-24T06:35:02;0.90;;;0.90;;
30998;SDS011;20549;50.042;8.968;2023-04-24T06:37:28;1.32;;;1.00;;
30998;SDS011;20549;50.042;8.968;2023-04-24T06:39:55;1.95;;;1.72;;
30998;SDS011;20549;50.042;8.968;2023-04-24T06:42:21;0.93;;;0.93;;
30998;SDS011;20549;50.042;8.968;2023-04-24T06:44:48;0.88;;;0.88;;
30998;SDS011;20549;50.042;8.968;2023-04-24T06:47:15;1.10;;;1.00;;
30998;SDS011;20549;50.042;8.968;2023-04-24T06:49:41;1.30;;;1.20;;
30998;SDS011;20549;50.042;8.968;2023-04-24T06:52:08;1.07;;;0.98;;
30998;SDS011;20549;50.042;8.968;2023-04-24T06:54:34;1.00;;;1.00;;
30998;SDS011;20549;50.042;8.968;2023-04-24T06:57:01;1.00;;;1.00;;
30998;SDS011;20549;50.042;8.968;2023-04-24T06:59:27;2.05;;;0.98;;
30998;SDS011;20549;50.042;8.968;2023-04-24T07:01:54;1.20;;;1.10;;
30998;SDS011;20549;50.042;8.968;2023-04-24T07:04:21;2.70;;;1.20;;
30998;SDS011;20549;50.042;8.968;2023-04-24T07:06:47;0.90;;;0.90;;
30998;SDS011;20549;50.042;8.968;2023-04-24T07:09:14;2.45;;;1.50;;
30998;SDS011;20549;50.042;8.968;2023-04-24T07:11:40;1.40;;;1.30;;
30998;SDS011;20549;50.042;8.968;2023-04-24T07:14:07;1.32;;;1.02;;
30998;SDS011;20549;50.042;8.968;2023-04-24T07:16:34;1.00;;;1.00;;
30998;SDS011;20549;50.042;8.968;2023-04-24T07:19:00;2.00;;;1.80;;
30998;SDS011;20549;50.042;8.968;2023-04-24T07:21:27;1.62;;;1.40;;
30998;SDS011;20549;50.042;8.968;2023-04-24T07:23:53;1.50;;;1.40;;
30998;SDS011;20549;50.042;8.968;2023-04-24T07:26:20;1.17;;;1.10;;
30998;SDS011;20549;50.042;8.968;2023-04-24T07:28:47;2.17;;;1.35;;
30998;SDS011;20549;50.042;8.968;2023-04-24T07:31:13;1.40;;;1.30;;
30998;SDS011;20549;50.042;8.968;2023-04-24T07:33:40;1.50;;;1.20;;
30998;SDS011;20549;50.042;8.968;2023-04-24T07:36:06;1.30;;;1.20;;
30998;SDS011;20549;50.042;8.968;2023-04-24T07:38:33;1.00;;;1.00;;
30998;SDS011;20549;50.042;8.968;2023-04-24T07:40:59;1.60;;;1.50;;
30998;SDS011;20549;50.042;8.968;2023-04-24T07:43:26;2.05;;;1.70;;
30998;SDS011;20549;50.042;8.968;2023-04-24T07:45:53;1.40;;;1.30;;
30998;SDS011;20549;50.042;8.968;2023-04-24T07:48:19;1.12;;;1.12;;
30998;SDS011;20549;50.042;8.968;2023-04-24T07:50:46;0.93;;;0.93;;
30998;SDS011;20549;50.042;8.968;2023-04-24T07:53:12;1.00;;;1.00;;
30998;SDS011;20549;50.042;8.968;2023-04-24T07:55:39;1.10;;;1.10;;
30998;SDS011;20549;50.042;8.968;2023-04-24T07:58:06;1.55;;;1.07;;
30998;SDS011;20549;50.042;8.968;2023-04-24T08:00:32;1.27;;;1.17;;
30998;SDS011;20549;50.042;8.968;2023-04-24T08:02:59;1.32;;;1.22;;
30998;SDS011;20549;50.042;8.968;2023-04-24T08:05:25;1.27;;;1.17;;
30998;SDS011;20549;50.042;8.968;2023-04-24T08:07:52;1.25;;;1.15;;
30998;SDS011;20549;50.042;8.968;2023-04-24T08:10:19;1.00;;;1.00;;
30998;SDS011;20549;50.042;8.968;2023-04-24T08:12:45;1.85;;;1.22;;
30998;SDS011;20549;50.042;8.968;2023-04-24T08:15:12;1.40;;;1.30;;
30998;SDS011;20549;50.042;8.968;2023-04-24T08:17:38;1.22;;;1.17;;
30998;SDS011;20549;50.042;8.968;2023-04-24T08:20:05;1.55;;;1.20;;
30998;SDS011;20549;50.042;8.968;2023-04-24T08:22:32;2.70;;;1.10;;
30998;SDS011;20549;50.042;8.968;2023-04-24T08:24:59;1.05;;;0.95;;
30998;SDS011;20549;50.042;8.968;2023-04-24T08:27:25;0.93;;;0.93;;
30998;SDS011;20549;50.042;8.968;2023-04-24T08:29:52;1.40;;;1.00;;
30998;SDS011;20549;50.042;8.968;2023-04-24T08:32:21;1.27;;;1.17;;
30998;SDS011;20549;50.042;8.968;2023-04-24T08:34:47;1.30;;;1.00;;
30998;SDS011;20549;50.042;8.968;2023-04-24T08:37:14;0.98;;;0.98;;
30998;SDS011;20549;50.042;8.968;2023-04-24T08:39:41;1.20;;;1.12;;
30998;SDS011;20549;50.042;8.968;2023-04-24T08:42:07;1.05;;;0.90;;
30998;SDS011;20549;50.042;8.968;2023-04-24T08:44:34;0.90;;;0.90;;
30998;SDS011;20549;50.042;8.968;2023-04-24T08:47:03;1.17;;;1.12;;
30998;SDS011;20549;50.042;8.968;2023-04-24T08:49:30;1.10;;;1.10;;
30998;SDS011;20549;50.042;8.968;2023-04-24T08:51:56;0.80;;;0.80;;
30998;SDS011;20549;50.042;8.968;2023-04-24T08:54:23;1.35;;;1.00;;
30998;SDS011;20549;50.042;8.968;2023-04-24T08:56:49;0.90;;;0.90;;
30998;SDS011;20549;50.042;8.968;2023-04-24T08:59:16;1.12;;;1.07;;
30998;SDS011;20549;50.042;8.968;2023-04-24T09:01:42;1.27;;;1.17;;
30998;SDS011;20549;50.042;8.968;2023-04-24T09:04:09;0.90;;;0.90;;
30998;SDS011;20549;50.042;8.968;2023-04-24T09:06:36;1.67;;;1.12;;
30998;SDS011;20549;50.042;8.968;2023-04-24T09:09:02;0.90;;;0.90;;
30998;SDS011;20549;50.042;8.968;2023-04-24T09:11:30;1.20;;;1.10;;
30998;SDS011;20549;50.042;8.968;2023-04-24T09:13:56;1.62;;;1.12;;
30998;SDS011;20549;50.042;8.968;2023-04-24T09:16:22;1.32;;;1.30;;
30998;SDS011;20549;50.042;8.968;2023-04-24T09:18:49;1.25;;;1.15;;
30998;SDS011;20549;50.042;8.968;2023-04-24T09:21:15;1.25;;;1.25;;
30998;SDS011;20549;50.042;8.968;2023-04-24T09:23:42;1.20;;;1.20;;
30998;SDS011;20549;50.042;8.968;2023-04-24T09:26:09;1.40;;;1.30;;
30998;SDS011;20549;50.042;8.968;2023-04-24T09:28:36;1.30;;;1.12;;
30998;SDS011;20549;50.042;8.968;2023-04-24T09:31:09;2.87;;;1.30;;
30998;SDS011;20549;50.042;8.968;2023-04-24T09:33:40;1.50;;;1.35;;
30998;SDS011;20549;50.042;8.968;2023-04-24T09:36:07;1.57;;;1.47;;
30998;SDS011;20549;50.042;8.968;2023-04-24T09:38:34;1.40;;;1.30;;
30998;SDS011;20549;50.042;8.968;2023-04-24T09:41:04;1.30;;;1.20;;
30998;SDS011;20549;50.042;8.968;2023-04-24T09:43:29;1.42;;;1.32;;
30998;SDS011;20549;50.042;8.968;2023-04-24T09:45:57;1.90;;;1.32;;
30998;SDS011;20549;50.042;8.968;2023-04-24T09:48:35;1.60;;;1.50;;
30998;SDS011;20549;50.042;8.968;2023-04-24T09:50:58;1.32;;;1.20;;
30998;SDS011;20549;50.042;8.968;2023-04-24T09:53:24;1.20;;;1.20;;
30998;SDS011;20549;50.042;8.968;2023-04-24T09:55:51;1.57;;;1.47;;
30998;SDS011;20549;50.042;8.968;2023-04-24T09:58:17;1.05;;;0.98;;
30998;SDS011;20549;50.042;8.968;2023-04-24T10:00:44;2.55;;;1.20;;
30998;SDS011;20549;50.042;8.968;2023-04-24T10:03:11;1.87;;;1.10;;
30998;SDS011;20549;50.042;8.968;2023-04-24T10:05:37;1.35;;;1.25;;
30998;SDS011;20549;50.042;8.968;2023-04-24T10:08:08;1.52;;;1.10;;
30998;SDS011;20549;50.042;8.968;2023-04-24T10:10:34;1.37;;;1.17;;
30998;SDS011;20549;50.042;8.968;2023-04-24T10:13:00;1.10;;;1.02;;
30998;SDS011;20549;50.042;8.968;2023-04-24T10:15:26;1.12;;;1.10;;
30998;SDS011;20549;50.042;8.968;2023-04-24T10:17:53;1.30;;;1.20;;
30998;SDS011;20549;50.042;8.968;2023-04-24T10:20:20;1.20;;;1.10;;
30998;SDS011;20549;50.042;8.968;2023-04-24T10:22:50;1.07;;;0.98;;
30998;SDS011;20549;50.042;8.968;2023-04-24T10:25:18;0.70;;;0.70;;
30998;SDS011;20549;50.042;8.968;2023-04-24T10:27:45;1.25;;;1.15;;
30998;SDS011;20549;50.042;8.968;2023-04-24T10:30:11;1.37;;;0.82;;
30998;SDS011;20549;50.042;8.968;2023-04-24T10:32:38;1.40;;;1.00;;
30998;SDS011;20549;50.042;8.968;2023-04-24T10:35:06;5.12;;;1.00;;
30998;SDS011;20549;50.042;8.968;2023-04-24T10:37:35;2.10;;;1.52;;
30998;SDS011;20549;50.042;8.968;2023-04-24T10:39:57;1.05;;;1.05;;
30998;SDS011;20549;50.042;8.968;2023-04-24T10:42:24;3.45;;;1.02;;
30998;SDS011;20549;50.042;8.968;2023-04-24T10:44:51;0.98;;;0.98;;
30998;SDS011;20549;50.042;8.968;2023-04-24T10:47:17;1.45;;;1.35;;
30998;SDS011;20549;50.042;8.968;2023-04-24T10:49:44;1.42;;;1.20;;
30998;SDS011;20549;50.042;8.968;2023-04-24T10:52:10;1.75;;;0.80;;
30998;SDS011;20549;50.042;8.968;2023-04-24T10:59:52;1.20;;;1.20;;
30998;SDS011;20549;50.042;8.968;2023-04-24T11:02:17;2.17;;;1.98;;
30998;SDS011;20549;50.042;8.968;2023-04-24T11:04:44;1.45;;;1.35;;
30998;SDS011;20549;50.042;8.968;2023-04-24T11:07:11;1.55;;;1.45;;
30998;SDS011;20549;50.042;8.968;2023-04-24T11:09:37;1.42;;;1.32;;
30998;SDS011;20549;50.042;8.968;2023-04-24T11:12:05;1.45;;;1.35;;
30998;SDS011;20549;50.042;8.968;2023-04-24T11:15:01;1.42;;;1.32;;
30998;SDS011;20549;50.042;8.968;2023-04-24T11:17:30;1.50;;;1.40;;
30998;SDS011;20549;50.042;8.968;2023-04-24T11:20:03;4.83;;;1.70;;
30998;SDS011;20549;50.042;8.968;2023-04-24T11:22:29;1.45;;;1.30;;
30998;SDS011;20549;50.042;8.968;2023-04-24T11:24:56;1.50;;;1.20;;
30998;SDS011;20549;50.042;8.968;2023-04-24T11:27:22;1.05;;;0.95;;
30998;SDS011;20549;50.042;8.968;2023-04-24T11:29:51;1.02;;;0.98;;
30998;SDS011;20549;50.042;8.968;2023-04-24T11:32:16;1.27;;;1.00;;
30998;SDS011;20549;50.042;8.968;2023-04-24T11:34:49;1.12;;;1.05;;
30998;SDS011;20549;50.042;8.968;2023-04-24T11:37:11;0.93;;;0.93;;
30998;SDS011;20549;50.042;8.968;2023-04-24T11:39:38;1.20;;;1.20;;
30998;SDS011;20549;50.042;8.968;2023-04-24T11:42:04;1.30;;;1.25;;
30998;SDS011;20549;50.042;8.968;2023-04-24T11:44:31;1.42;;;1.32;;
30998;SDS011;20549;50.042;8.968;2023-04-24T11:46:57;1.10;;;1.10;;
30998;SDS011;20549;50.042;8.968;2023-04-24T11:49:24;0.70;;;0.70;;
30998;SDS011;20549;50.042;8.968;2023-04-24T11:51:54;0.68;;;0.68;;
30998;SDS011;20549;50.042;8.968;2023-04-24T11:54:17;0.80;;;0.80;;
30998;SDS011;20549;50.042;8.968;2023-04-24T11:56:47;0.60;;;0.60;;
30998;SDS011;20549;50.042;8.968;2023-04-24T11:59:13;0.60;;;0.60;;
30998;SDS011;20549;50.042;8.968;2023-04-24T12:01:45;0.62;;;0.57;;
30998;SDS011;20549;50.042;8.968;2023-04-24T12:04:09;0.72;;;0.72;;
30998;SDS011;20549;50.042;8.968;2023-04-24T12:06:36;0.80;;;0.80;;
30998;SDS011;20549;50.042;8.968;2023-04-24T12:09:02;0.82;;;0.82;;
30998;SDS011;20549;50.042;8.968;2023-04-24T12:11:29;0.70;;;0.70;;
30998;SDS011;20549;50.042;8.968;2023-04-24T12:13:55;0.62;;;0.57;;
30998;SDS011;20549;50.042;8.968;2023-04-24T12:16:22;0.68;;;0.68;;
30998;SDS011;20549;50.042;8.968;2023-04-24T12:18:50;0.70;;;0.70;;
30998;SDS011;20549;50.042;8.968;2023-04-24T12:21:19;0.80;;;0.80;;
30998;SDS011;20549;50.042;8.968;2023-04-24T12:23:45;0.60;;;0.60;;
30998;SDS011;20549;50.042;8.968;2023-04-24T12:26:18;0.60;;;0.60;;
30998;SDS011;20549;50.042;8.968;2023-04-24T12:28:45;0.40;;;0.40;;
30998;SDS011;20549;50.042;8.968;2023-04-24T12:31:10;0.60;;;0.60;;
30998;SDS011;20549;50.042;8.968;2023-04-24T12:33:37;0.30;;;0.30;;
30998;SDS011;20549;50.042;8.968;2023-04-24T12:36:04;0.50;;;0.50;;
30998;SDS011;20549;50.042;8.968;2023-04-24T12:38:30;0.70;;;0.70;;
30998;SDS011;20549;50.042;8.968;2023-04-24T12:41:07;0.75;;;0.75;;
30998;SDS011;20549;50.042;8.968;2023-04-24T12:43:32;0.78;;;0.78;;
30998;SDS011;20549;50.042;8.968;2023-04-24T12:45:59;1.80;;;0.93;;
30998;SDS011;20549;50.042;8.968;2023-04-24T12:48:26;1.30;;;1.20;;
30998;SDS011;20549;50.042;8.968;2023-04-24T12:50:52;1.25;;;1.12;;
30998;SDS011;20549;50.042;8.968;2023-04-24T12:53:19;0.90;;;0.90;;
30998;SDS011;20549;50.042;8.968;2023-04-24T12:55:45;1.40;;;1.15;;
30998;SDS011;20549;50.042;8.968;2023-04-24T12:58:12;2.55;;;1.75;;
30998;SDS011;20549;50.042;8.968;2023-04-24T13:00:38;1.00;;;1.00;;
30998;SDS011;20549;50.042;8.968;2023-04-24T13:03:05;0.90;;;0.90;;
30998;SDS011;20549;50.042;8.968;2023-04-24T13:05:32;0.90;;;0.90;;
30998;SDS011;20549;50.042;8.968;2023-04-24T13:07:58;1.32;;;1.02;;
30998;SDS011;20549;50.042;8.968;2023-04-24T13:10:25;2.25;;;1.22;;
30998;SDS011;20549;50.042;8.968;2023-04-24T13:12:51;1.05;;;1.00;;
30998;SDS011;20549;50.042;8.968;2023-04-24T13:15:18;1.20;;;1.10;;
30998;SDS011;20549;50.042;8.968;2023-04-24T13:17:45;1.47;;;1.37;;
30998;SDS011;20549;50.042;8.968;2023-04-24T13:20:11;1.72;;;1.50;;
30998;SDS011;20549;50.042;8.968;2023-04-24T13:22:38;1.40;;;1.30;;
30998;SDS011;20549;50.042;8.968;2023-04-24T13:25:04;1.52;;;1.42;;
30998;SDS011;20549;50.042;8.968;2023-04-24T13:27:31;1.70;;;1.60;;
30998;SDS011;20549;50.042;8.968;2023-04-24T13:29:58;1.70;;;1.60;;
30998;SDS011;20549;50.042;8.968;2023-04-24T13:32:24;1.60;;;1.50;;
30998;SDS011;20549;50.042;8.968;2023-04-24T13:34:51;1.70;;;1.60;;
30998;SDS011;20549;50.042;8.968;2023-04-24T13:37:17;1.92;;;1.82;;
30998;SDS011;20549;50.042;8.968;2023-04-24T13:39:44;2.10;;;1.85;;
30998;SDS011;20549;50.042;8.968;2023-04-24T13:42:11;1.52;;;1.42;;
30998;SDS011;20549;50.042;8.968;2023-04-24T13:44:37;1.70;;;1.60;;
30998;SDS011;20549;50.042;8.968;2023-04-24T13:47:04;1.70;;;1.60;;
30998;SDS011;20549;50.042;8.968;2023-04-24T13:49:30;1.77;;;1.67;;
30998;SDS011;20549;50.042;8.968;2023-04-24T13:51:57;1.85;;;1.75;;
30998;SDS011;20549;50.042;8.968;2023-04-24T13:54:23;2.12;;;1.80;;
30998;SDS011;20549;50.042;8.968;2023-04-24T13:56:50;2.12;;;2.00;;
30998;SDS011;20549;50.042;8.968;2023-04-24T13:59:17;1.82;;;1.60;;
30998;SDS011;20549;50.042;8.968;2023-04-24T14:01:43;1.85;;;1.75;;
30998;SDS011;20549;50.042;8.968;2023-04-24T14:04:10;2.20;;;2.00;;
30998;SDS011;20549;50.042;8.968;2023-04-24T14:06:36;1.92;;;1.77;;
30998;SDS011;20549;50.042;8.968;2023-04-24T14:09:03;3.60;;;2.00;;
30998;SDS011;20549;50.042;8.968;2023-04-24T14:11:30;2.02;;;1.92;;
30998;SDS011;20549;50.042;8.968;2023-04-24T14:13:56;10.25;;;3.65;;
30998;SDS011;20549;50.042;8.968;2023-04-24T14:16:23;2.05;;;1.85;;
30998;SDS011;20549;50.042;8.968;2023-04-24T14:18:49;2.02;;;1.87;;
30998;SDS011;20549;50.042;8.968;2023-04-24T14:21:16;1.82;;;1.72;;
30998;SDS011;20549;50.042;8.968;2023-04-24T14:23:43;2.40;;;1.70;;
30998;SDS011;20549;50.042;8.968;2023-04-24T14:26:09;2.42;;;1.95;;
30998;SDS011;20549;50.042;8.968;2023-04-24T14:28:36;2.58;;;1.90;;
30998;SDS011;20549;50.042;8.968;2023-04-24T14:31:02;3.25;;;1.85;;
30998;SDS011;20549;50.042;8.968;2023-04-24T14:33:29;2.35;;;1.90;;
30998;SDS011;20549;50.042;8.968;2023-04-24T14:35:56;3.08;;;1.50;;
30998;SDS011;20549;50.042;8.968;2023-04-24T14:38:22;2.30;;;1.40;;
30998;SDS011;20549;50.042;8.968;2023-04-24T14:40:49;2.52;;;1.80;;
30998;SDS011;20549;50.042;8.968;2023-04-24T14:43:15;1.85;;;1.52;;
30998;SDS011;20549;50.042;8.968;2023-04-24T14:45:42;2.22;;;1.62;;
30998;SDS011;20549;50.042;8.968;2023-04-24T14:48:08;1.50;;;1.40;;
30998;SDS011;20549;50.042;8.968;2023-04-24T14:50:35;1.75;;;1.47;;